Flight Track Log - Related Links

Times and Time Zones

All times are in EDT time to prevent confusion due to time zone crossing. See the UAL623 flight status page for this flight to view local times or setup timezone preferences in your user account.


Time Position Orientation Groundspeed Altitude Reporting Facility
EDT Latitude Longitude Course Direction KTS MPH feet Rate Location/Type
Tue 11:26:08 AM 28.4500 -81.3167 350° North 145 167 800  Level Orlando TRACON
Tue 11:26:51 AM 28.4667 -81.3167 360° North 153 176 2,300 1,651 Climbing Orlando TRACON
Tue 11:27:57 AM 28.5333 -81.3167 360° North 200 230 3,800 1,905 Climbing Orlando TRACON
Tue 11:28:57 AM 28.6000 -81.3167 360° North 287 330 6,300 2,870 Climbing Orlando TRACON
Tue 11:29:00 AM 28.8395 -81.3512 350° North  Level FlightAware Approximate
Tue 11:29:52 AM 28.6667 -81.3333 348° North 274 315 9,300  Level Orlando TRACON
Tue 11:30:00 AM 28.9466 -81.3667 North  Level FlightAware Approximate
Tue 11:31:00 AM 29.0539 -81.3774 350° North  Level FlightAware Approximate
Tue 11:32:04 AM 28.8281 -81.4208 335° Northwest 307 353 14,000  Level Jacksonville Center
Tue 11:33:04 AM 28.9203 -81.4503 344° North 328 377 16,400 2,000 Climbing Jacksonville Center
Tue 11:34:04 AM 29.0144 -81.4844 342° North 345 397 18,000 1,800 Climbing Jacksonville Center
Tue 11:35:04 AM 29.1150 -81.5164 344° North 351 404 20,000 1,950 Climbing Jacksonville Center
Tue 11:36:04 AM 29.2200 -81.5553 342° North 363 418 21,900 1,750 Climbing Jacksonville Center
Tue 11:37:04 AM 29.3289 -81.5897 345° North 374 430 23,500 1,700 Climbing Jacksonville Center
Tue 11:38:04 AM 29.4356 -81.6192 346° North 384 442 25,300 1,600 Climbing Jacksonville Center
Tue 11:39:04 AM 29.5483 -81.6319 354° North 391 450 26,700 1,361 Climbing Jacksonville Center
Tue 11:40:03 AM 29.6633 -81.6472 353° North 403 464 28,000 1,300 Climbing Jacksonville Center
Tue 11:41:04 AM 29.7825 -81.6603 355° North 416 479 29,300 1,091 Climbing Jacksonville Center
Tue 11:42:04 AM 29.8994 -81.6756 354° North 421 484 30,200 1,109 Climbing Jacksonville Center
Tue 11:43:03 AM 30.0228 -81.6908 354° North 428 493 31,500 1,311 Climbing Jacksonville Center
Tue 11:44:03 AM 30.1419 -81.7036 355° North 433 498 32,800 1,190 Climbing Jacksonville Center
Tue 11:45:04 AM 30.2611 -81.7189 354° North 433 498 33,900 1,100 Climbing Jacksonville Center
Tue 11:46:03 AM 30.3803 -81.7319 355° North 423 487 35,000 555 Climbing Jacksonville Center
Tue 11:47:03 AM 30.4972 -81.7497 353° North 418 481 35,000  Level Jacksonville Center
Tue 11:48:04 AM 30.6144 -81.7628 355° North 423 487 35,000  Level Jacksonville Center
Tue 11:49:04 AM 30.7336 -81.7783 354° North 423 487 35,000  Level Jacksonville Center
Tue 11:50:04 AM 30.8483 -81.7892 355° North 423 487 35,000  Level Jacksonville Center
Tue 11:51:04 AM 30.9572 -81.8097 351° North 423 487 35,000  Level Jacksonville Center
Tue 11:52:04 AM 31.0722 -81.8253 353° North 423 487 35,000  Level Jacksonville Center
Tue 11:53:04 AM 31.1872 -81.8411 353° North 423 487 35,000 -50 Level Jacksonville Center
Tue 11:54:04 AM 31.3019 -81.8544 354° North 423 487 34,900  Descending Jacksonville Center
Tue 11:55:04 AM 31.4275 -81.8675 355° North 412 474 35,000 50 Climbing Jacksonville Center
Tue 11:56:04 AM 31.5319 -81.8811 354° North 412 474 35,000  Level Jacksonville Center
Tue 11:58:32 AM 31.8203 -81.9172 354° North 420 483 35,000  Level Atlanta Center
Tue 11:59:32 AM 31.9311 -81.9342 353° North 415 478 35,000  Level Atlanta Center
Tue 12:00:32 PM 32.0483 -81.9486 354° North 415 478 35,000  Level Atlanta Center
Tue 12:01:32 PM 32.1611 -81.9608 355° North 409 471 35,000  Level Atlanta Center
Tue 12:02:32 PM 32.2867 -81.9750 355° North 409 471 35,000  Level Atlanta Center
Tue 12:03:32 PM 32.3994 -81.9897 354° North 409 471 35,000  Level Atlanta Center
Tue 12:04:32 PM 32.5125 -82.0067 353° North 409 471 35,000  Level Atlanta Center
Tue 12:05:32 PM 32.6275 -82.0214 354° North 409 471 35,000  Level Atlanta Center
Tue 12:06:32 PM 32.7406 -82.0361 354° North 409 471 35,000  Level Atlanta Center
Tue 12:07:32 PM 32.8536 -82.0508 354° North 409 471 35,000  Level Atlanta Center
Tue 12:08:32 PM 32.9686 -82.0656 354° North 409 471 35,000  Level Atlanta Center
Tue 12:09:32 PM 33.0814 -82.0778 355° North 409 471 35,000  Level Atlanta Center
Tue 12:10:32 PM 33.1986 -82.0975 352° North 409 471 35,000  Level Atlanta Center
Tue 12:11:32 PM 33.3117 -82.1100 355° North 409 471 35,000  Level Atlanta Center
Tue 12:12:32 PM 33.4244 -82.1247 354° North 404 465 35,000  Level Atlanta Center
Tue 12:13:32 PM 33.5353 -82.1397 354° North 409 471 35,000  Level Atlanta Center
Tue 12:14:32 PM 33.6378 -82.1500 355° North 409 471 35,000  Level Atlanta Center
Tue 12:15:32 PM 33.7528 -82.1600 356° North 409 471 35,000  Level Atlanta Center
Tue 12:16:32 PM 33.8697 -82.1600 360° North 409 471 35,000  Level Atlanta Center
Tue 12:17:32 PM 33.9822 -82.1625 359° North 409 471 35,000  Level Atlanta Center
Tue 12:18:32 PM 34.0950 -82.1650 359° North 404 465 35,000  Level Atlanta Center
Tue 12:19:32 PM 34.2058 -82.1675 359° North 404 465 35,000  Level Atlanta Center
Tue 12:20:32 PM 34.3183 -82.1675 360° North 399 459 35,000  Level Atlanta Center
Tue 12:21:32 PM 34.4308 -82.1550 North 399 459 35,000  Level Atlanta Center
Tue 12:22:32 PM 34.5411 -82.1272 12° North 404 465 35,000  Level Atlanta Center
Tue 12:23:32 PM 34.6617 -82.0967 12° North 404 465 35,000  Level Atlanta Center
Tue 12:24:32 PM 34.7719 -82.0689 12° North 404 465 35,000  Level Atlanta Center
Tue 12:25:32 PM 34.8800 -82.0411 12° North 404 465 35,000  Level Atlanta Center
Tue 12:26:32 PM 34.9797 -82.0183 11° North 404 465 35,000  Level Atlanta Center
Tue 12:27:32 PM 35.1022 -81.9850 13° North 404 465 35,000  Level Atlanta Center
Tue 12:28:32 PM 35.2103 -81.9542 13° North 404 465 35,000  Level Atlanta Center
Tue 12:29:32 PM 35.3203 -81.9236 13° North 410 472 35,000  Level Atlanta Center
Tue 12:30:32 PM 35.4306 -81.8978 11° North 410 472 35,000  Level Atlanta Center
Tue 12:31:32 PM 35.5431 -81.8972 360° North 405 466 35,000  Level Atlanta Center
Tue 12:32:32 PM 35.6536 -81.8997 359° North 400 460 35,000  Level Atlanta Center
Tue 12:33:32 PM 35.7644 -81.9044 358° North 405 466 35,000  Level Atlanta Center
Tue 12:34:32 PM 35.8644 -81.9094 358° North 405 466 35,000  Level Atlanta Center
Tue 12:35:32 PM 35.9753 -81.9142 358° North 400 460 35,000  Level Atlanta Center
Tue 12:36:32 PM 36.0858 -81.9164 359° North 400 460 35,000  Level Atlanta Center
Tue 12:37:32 PM 36.1964 -81.9211 358° North 405 466 35,000  Level Atlanta Center
Tue 12:38:32 PM 36.3050 -81.9261 358° North 400 460 35,000  Level Atlanta Center
Tue 12:39:32 PM 36.4156 -81.9308 358° North 394 453 35,000  Level Atlanta Center
Tue 12:40:32 PM 36.5242 -81.9358 358° North 389 448 35,000  Level Atlanta Center
Tue 12:43:02 PM 36.7975 -81.9483 358° North 401 461 35,000  Level Indianapolis Center
Tue 12:44:03 PM 36.9244 -81.9553 357° North 394 453 35,000  Level Indianapolis Center
Tue 12:45:05 PM 37.0297 -81.9872 346° North 391 450 35,000  Level Indianapolis Center
Tue 12:46:07 PM 37.1339 -82.0217 345° North 388 447 35,000  Level Indianapolis Center
Tue 12:47:08 PM 37.2375 -82.0558 345° North 385 443 35,000  Level Indianapolis Center
Tue 12:48:10 PM 37.3436 -82.0789 350° North 388 447 35,000  Level Indianapolis Center
Tue 12:49:12 PM 37.4531 -82.0786 360° North 392 451 35,000  Level Indianapolis Center
Tue 12:50:13 PM 37.5797 -82.0811 359° North 390 449 35,000  Level Indianapolis Center
Tue 12:51:15 PM 37.6858 -82.0825 359° North 384 442 35,000  Level Indianapolis Center
Tue 12:52:17 PM 37.7950 -82.0844 359° North 389 448 35,000  Level Indianapolis Center
Tue 12:53:19 PM 37.9067 -82.0861 359° North 386 444 35,000  Level Indianapolis Center
Tue 12:54:20 PM 38.0153 -82.0872 360° North 387 445 35,000 -244 Level Indianapolis Center
Tue 12:55:22 PM 38.1242 -82.0886 359° North 388 447 34,500 -488 Descending Indianapolis Center
Tue 12:56:23 PM 38.2331 -82.0906 359° North 390 449 34,000 -244 Descending Indianapolis Center
Tue 12:57:25 PM 38.3428 -82.0928 359° North 391 450 34,000  Level Indianapolis Center
Tue 12:58:27 PM 38.4514 -82.0944 359° North 388 447 34,000  Level Indianapolis Center
Tue 12:59:28 PM 38.5608 -82.0958 359° North 388 447 34,000  Level Indianapolis Center
Tue 01:00:30 PM 38.6717 -82.0981 359° North 393 452 34,000  Level Indianapolis Center
Tue 01:01:32 PM 38.7811 -82.1000 359° North 391 450 34,000  Level Indianapolis Center
Tue 01:02:33 PM 38.9122 -82.1017 359° North 388 447 34,000  Level Indianapolis Center
Tue 01:03:35 PM 39.0197 -82.1044 359° North 385 443 34,000 -629 Level Indianapolis Center
Tue 01:04:37 PM 39.1272 -82.1056 360° North 384 442 32,700 -1,317 Descending Indianapolis Center
Tue 01:05:38 PM 39.2336 -82.1072 359° North 382 440 31,300 -1,366 Descending Indianapolis Center
Tue 01:06:40 PM 39.3422 -82.1083 360° North 386 444 29,900 -1,366 Descending Indianapolis Center
Tue 01:07:41 PM 39.4519 -82.1106 359° North 393 452 28,500 -1,317 Descending Indianapolis Center
Tue 01:08:43 PM 39.5608 -82.1108 360° North 390 449 27,200 -1,306 Descending Indianapolis Center
Tue 01:09:45 PM 39.6647 -82.1136 359° North 375 432 25,800 -1,463 Descending Indianapolis Center
Tue 01:10:46 PM 39.7783 -82.1158 359° North 361 415 24,200 -1,463 Descending Indianapolis Center
Tue 01:11:48 PM 39.8786 -82.1164 360° North 359 413 22,800 -1,452 Descending Indianapolis Center
Tue 01:12:50 PM 39.9786 -82.1178 359° North 356 410 21,200 -1,597 Descending Indianapolis Center
Tue 01:13:52 PM 40.0728 -82.1031 North 340 391 19,500 -1,122 Descending Indianapolis Center
Tue 01:14:53 PM 40.1656 -82.0858 North 336 387 18,900 -244 Descending Indianapolis Center
Tue 01:15:55 PM 40.2697 -82.0689 North 339 390 19,000 44 Climbing Indianapolis Center
Tue 01:17:09 PM 40.3850 -82.0494 North 338 389 19,000  Level Cleveland Center
Tue 01:18:09 PM 40.4789 -82.0325 North 345 397 19,000 -850 Level Cleveland Center
Tue 01:19:09 PM 40.5689 -82.0153 North 338 389 17,300 -1,800 Descending Cleveland Center
Tue 01:20:09 PM 40.6492 -81.9378 36° Northeast 350 403 15,400 -1,907 Descending Cleveland Center
Tue 01:20:56 PM 40.7081 -81.8814 36° Northeast 359 413 13,900 -1,907 Descending Cleveland Center
Tue 01:21:56 PM 40.7861 -81.8033 37° Northeast 352 405 12,000 -1,835 Descending Cleveland Center
Tue 01:22:57 PM 40.8619 -81.7281 37° Northeast 341 392 10,200 -992 Descending Cleveland Center
Tue 01:23:57 PM 40.9439 -81.6469 37° Northeast 344 396 10,000 -91 Descending Cleveland Center
Tue 01:25:09 PM 41.0458 -81.6733 349° North 294 338 10,000 -246 Level Cleveland Center
Tue 01:25:59 PM 41.1058 -81.7156 332° Northwest 270 311 9,500 -950 Descending Cleveland Center
Tue 01:27:09 PM 41.1831 -81.7253 355° North 277 319 8,100 -1,636 Descending Cleveland Center
Tue 01:28:00 PM 41.2561 -81.7044 12° North 292 336 6,200 -1,850 Descending Cleveland Center
Tue 01:29:09 PM 41.3461 -81.6672 17° North 291 335 4,400 -1,339 Descending Cleveland Center
Tue 01:30:01 PM 41.4089 -81.6461 14° North 280 322 3,500 -690 Descending Cleveland Center
Tue 01:31:02 PM 41.4733 -81.6750 341° North 219 252 3,100 -347 Descending Cleveland Center
Tue 01:32:02 PM 41.4808 -81.7417 279° West 152 175 2,800 -300 Descending Cleveland Center

Login

Don't have an account? Register now (free) for customized features, flight alerts, and more!